Nouasseur, Morocco
Current Conditions -  °F | °C
As of 7:30 PM on Tuesday 21 Oct 2014 (Local Time) from GMMN Reporting Station
Clear Clear  
Wind Chill: 77°   Ceiling: Unl
Heat Index: 79°   Visibility: 6mi
Dew Point: 59°   Wind: 13mph
Humidity: 54%   Direction: 20°NNE
Pressure: 30.15"   Gusts: NA
Location:  33.37°N, 7.58°W
Report Text: GMMN 211830Z 02011KT CAVOK 25/15 Q1021 NOSIG
Loading
Personal Weather Stations






























Interactive Weather Map New forecast layout! Learn more

10-Day Weather Forecast

Advertisements
Track Severe Weather on mobile